Time;durP1;ratioP1;P1;durP2;ratioP2;P2;SDS_P1;SDS_P2;PMS_P1;PMS_P2;Temp;Humidity;BMP_temperature;BMP_pressure;BME280_temperature;BME280_humidity;BME280_pressure;Samples;Min_cycle;Max_cycle;Signal;HPM_P1;HPM_P2
2022/05/19 00:06:10;;;;;;;;;;;16.80;1.00;;;;;;5054545;28;19963;-84
2022/05/19 00:11:50;;;;;;;;;;;16.70;1.00;;;;;;5061809;28;19967;-75
2022/05/19 00:14:20;;;;;;;;;;;16.70;1.00;;;;;;5060651;28;19913;-76
2022/05/19 00:16:46;;;;;;;;;;;16.60;1.00;;;;;;5067311;28;20442;-75
2022/05/19 00:19:14;;;;;;;;;;;16.60;1.00;;;;;;5054035;28;19948;-76
2022/05/19 00:21:49;;;;;;;;;;;16.60;1.00;;;;;;5068920;28;19912;-76
2022/05/19 00:24:26;;;;;;;;;;;16.50;1.00;;;;;;5076070;28;19999;-75
2022/05/19 00:26:58;;;;;;;;;;;16.50;1.00;;;;;;5060585;28;19913;-75
2022/05/19 00:29:25;;;;;;;;;;;16.50;1.00;;;;;;5058011;28;19947;-75
2022/05/19 00:31:51;;;;;;;;;;;16.40;1.00;;;;;;5056492;28;19913;-75
2022/05/19 00:34:17;;;;;;;;;;;16.40;1.00;;;;;;5091549;28;19913;-75
2022/05/19 00:36:43;;;;;;;;;;;16.40;1.00;;;;;;5071046;28;19924;-76
2022/05/19 00:39:27;;;;;;;;;;;16.30;1.00;;;;;;5069605;28;20352;-75
2022/05/19 00:48:25;;;;;;;;;;;16.20;1.00;;;;;;5070628;28;19920;-84
2022/05/19 00:57:08;;;;;;;;;;;16.10;1.00;;;;;;5062123;28;19959;-84
2022/05/19 01:02:39;;;;;;;;;;;16.00;1.00;;;;;;5075089;28;19920;-84
2022/05/19 01:08:13;;;;;;;;;;;15.90;1.00;;;;;;5037146;28;19920;-84
2022/05/19 01:11:13;;;;;;;;;;;15.90;1.00;;;;;;5036675;28;19964;-84
2022/05/19 01:13:39;;;;;;;;;;;15.80;1.00;;;;;;5067481;28;19908;-84
2022/05/19 01:19:13;;;;;;;;;;;15.80;1.00;;;;;;5076847;28;20023;-84
2022/05/19 01:25:07;;;;;;;;;;;15.70;1.00;;;;;;5063681;28;19919;-84
2022/05/19 01:27:33;;;;;;;;;;;15.70;1.00;;;;;;5077191;28;19912;-84
2022/05/19 01:29:59;;;;;;;;;;;15.70;1.00;;;;;;5076957;28;19913;-84
2022/05/19 01:32:43;;;;;;;;;;;15.60;1.00;;;;;;5077050;28;19913;-84
2022/05/19 01:38:15;;;;;;;;;;;15.60;1.00;;;;;;5056332;28;20130;-83
2022/05/19 01:40:49;;;;;;;;;;;15.50;1.00;;;;;;5057069;28;19904;-76
2022/05/19 01:43:18;;;;;;;;;;;15.50;1.00;;;;;;5069426;28;19913;-76
2022/05/19 01:45:43;;;;;;;;;;;15.50;1.00;;;;;;5056335;28;20007;-76
2022/05/19 01:48:18;;;;;;;;;;;15.40;1.00;;;;;;5071213;28;19951;-76
2022/05/19 01:50:47;;;;;;;;;;;15.40;1.00;;;;;;5063083;28;19920;-76
2022/05/19 01:53:19;;;;;;;;;;;15.40;1.00;;;;;;5066742;28;19971;-76
2022/05/19 02:02:12;;;;;;;;;;;15.30;1.00;;;;;;5063249;28;19932;-84
2022/05/19 02:08:01;;;;;;;;;;;15.20;1.00;;;;;;5076333;28;20271;-84
2022/05/19 02:10:49;;;;;;;;;;;15.20;1.00;;;;;;5076312;28;19913;-84
2022/05/19 02:13:20;;;;;;;;;;;15.20;1.00;;;;;;5063007;28;19931;-76
2022/05/19 02:15:48;;;;;;;;;;;15.20;1.00;;;;;;5050180;28;19916;-76
2022/05/19 02:18:21;;;;;;;;;;;15.10;1.00;;;;;;5075256;28;19909;-76
2022/05/19 02:20:57;;;;;;;;;;;15.10;1.00;;;;;;5055761;28;19997;-76
2022/05/19 02:23:26;;;;;;;;;;;15.10;1.00;;;;;;5069215;28;19908;-76
2022/05/19 02:25:53;;;;;;;;;;;15.10;1.00;;;;;;5056118;28;19915;-77
2022/05/19 02:28:24;;;;;;;;;;;15.00;1.00;;;;;;5071873;28;19934;-76
2022/05/19 02:30:50;;;;;;;;;;;15.00;1.00;;;;;;5107714;28;20011;-77
2022/05/19 02:33:19;;;;;;;;;;;15.00;1.00;;;;;;5059356;28;19963;-77
2022/05/19 02:35:45;;;;;;;;;;;15.00;1.00;;;;;;5065305;28;19909;-76
2022/05/19 02:38:11;;;;;;;;;;;14.90;1.00;;;;;;5058031;28;19913;-76
2022/05/19 02:40:38;;;;;;;;;;;14.90;1.00;;;;;;5075261;28;19916;-76
2022/05/19 02:49:10;;;;;;;;;;;14.80;1.00;;;;;;5075189;28;19916;-84
2022/05/19 02:51:35;;;;;;;;;;;14.80;1.00;;;;;;5075139;28;19916;-84
2022/05/19 02:57:07;;;;;;;;;;;14.80;1.00;;;;;;5052713;28;19959;-77
2022/05/19 02:59:33;;;;;;;;;;;14.70;1.00;;;;;;5060870;28;19909;-77
2022/05/19 03:01:59;;;;;;;;;;;14.70;1.00;;;;;;5075017;28;19915;-76
2022/05/19 03:04:26;;;;;;;;;;;14.60;1.00;;;;;;5067738;28;19916;-76
2022/05/19 03:06:55;;;;;;;;;;;14.60;1.00;;;;;;5054845;28;20372;-76
2022/05/19 03:09:21;;;;;;;;;;;14.60;1.00;;;;;;5055191;28;19962;-77
2022/05/19 03:12:07;;;;;;;;;;;14.60;1.00;;;;;;5055374;28;19912;-77
2022/05/19 03:14:37;;;;;;;;;;;14.60;1.00;;;;;;5050511;28;19915;-77
2022/05/19 03:17:08;;;;;;;;;;;14.60;1.00;;;;;;5054651;28;20399;-76
2022/05/19 03:19:52;;;;;;;;;;;14.50;1.00;;;;;;5054945;28;19909;-76
2022/05/19 03:22:20;;;;;;;;;;;14.50;1.00;;;;;;5035332;28;19914;-77
2022/05/19 03:24:45;;;;;;;;;;;14.50;1.00;;;;;;5036280;28;19995;-76
2022/05/19 03:27:11;;;;;;;;;;;14.50;1.00;;;;;;5067896;28;20004;-83
2022/05/19 03:29:37;;;;;;;;;;;14.40;1.00;;;;;;5054612;28;19955;-84
2022/05/19 03:32:02;;;;;;;;;;;14.50;1.00;;;;;;5093467;28;19912;-83
2022/05/19 03:37:31;;;;;;;;;;;14.40;1.00;;;;;;5045677;28;20386;-84
2022/05/19 03:46:03;;;;;;;;;;;14.40;1.00;;;;;;5054347;28;19932;-83
2022/05/19 03:48:38;;;;;;;;;;;14.40;1.00;;;;;;5060612;28;20278;-83
2022/05/19 03:54:06;;;;;;;;;;;14.50;1.00;;;;;;5055044;28;20406;-84
2022/05/19 03:56:38;;;;;;;;;;;14.50;1.00;;;;;;5072940;28;19912;-83
2022/05/19 03:59:14;;;;;;;;;;;14.50;1.00;;;;;;5061370;28;19927;-76
2022/05/19 04:01:43;;;;;;;;;;;14.50;1.00;;;;;;5074038;28;20003;-76
2022/05/19 04:04:25;;;;;;;;;;;14.50;1.00;;;;;;5062491;28;19915;-76
2022/05/19 04:06:51;;;;;;;;;;;14.60;1.00;;;;;;5061790;28;19916;-76
2022/05/19 04:09:17;;;;;;;;;;;14.60;1.00;;;;;;5086598;28;19909;-76
2022/05/19 04:11:42;;;;;;;;;;;14.60;1.00;;;;;;5066376;28;20013;-83
2022/05/19 04:20:15;;;;;;;;;;;14.70;1.00;;;;;;5051534;28;19916;-83
2022/05/19 04:23:01;;;;;;;;;;;14.80;1.00;;;;;;5052337;28;20276;-84
2022/05/19 04:28:30;;;;;;;;;;;14.90;1.00;;;;;;5054130;28;19963;-74
2022/05/19 04:30:56;;;;;;;;;;;15.00;1.00;;;;;;5053766;28;19921;-73
2022/05/19 04:33:26;;;;;;;;;;;15.00;1.00;;;;;;5062136;28;19909;-73
2022/05/19 04:35:55;;;;;;;;;;;15.00;1.00;;;;;;5058542;28;19923;-73
2022/05/19 04:38:22;;;;;;;;;;;15.10;1.00;;;;;;5069932;28;19912;-73
2022/05/19 04:40:48;;;;;;;;;;;15.20;1.00;;;;;;5066241;28;20399;-73
2022/05/19 04:43:19;;;;;;;;;;;15.30;1.00;;;;;;5054485;28;19913;-71
2022/05/19 04:45:49;;;;;;;;;;;15.40;1.00;;;;;;5054833;28;19913;-71
2022/05/19 04:48:15;;;;;;;;;;;15.40;1.00;;;;;;5053473;28;20012;-71
2022/05/19 04:50:40;;;;;;;;;;;15.50;1.00;;;;;;5057149;28;20407;-71
2022/05/19 04:53:06;;;;;;;;;;;15.60;1.00;;;;;;5059871;28;20343;-71
2022/05/19 04:55:34;;;;;;;;;;;15.70;1.00;;;;;;5058996;28;19931;-71
2022/05/19 04:57:59;;;;;;;;;;;15.70;1.00;;;;;;5059803;28;19913;-71
2022/05/19 05:00:25;;;;;;;;;;;15.80;1.00;;;;;;5060247;28;19912;-71
2022/05/19 05:02:50;;;;;;;;;;;16.00;1.00;;;;;;5047202;28;20298;-70
2022/05/19 05:05:17;;;;;;;;;;;16.10;1.00;;;;;;5058656;28;19917;-71
2022/05/19 05:07:42;;;;;;;;;;;16.20;1.00;;;;;;5050239;28;19920;-71
2022/05/19 05:10:08;;;;;;;;;;;16.30;1.00;;;;;;5056325;28;19912;-71
2022/05/19 05:12:34;;;;;;;;;;;16.40;1.00;;;;;;5056555;28;19916;-71
2022/05/19 05:14:59;;;;;;;;;;;16.50;1.00;;;;;;5070097;28;20038;-71
2022/05/19 05:17:25;;;;;;;;;;;16.60;1.00;;;;;;5056541;28;19920;-70
2022/05/19 05:19:51;;;;;;;;;;;16.80;1.00;;;;;;5056466;28;19920;-71
2022/05/19 05:22:16;;;;;;;;;;;16.90;1.00;;;;;;5065286;28;19989;-70
2022/05/19 05:24:42;;;;;;;;;;;17.00;1.00;;;;;;5069096;28;20038;-70
2022/05/19 05:27:07;;;;;;;;;;;17.10;1.00;;;;;;5057314;28;19920;-70
2022/05/19 05:29:33;;;;;;;;;;;17.20;1.00;;;;;;5055957;28;19927;-74
2022/05/19 05:32:02;;;;;;;;;;;17.30;1.00;;;;;;5056320;28;19920;-73
2022/05/19 05:34:31;;;;;;;;;;;17.40;1.00;;;;;;5056433;28;20421;-73
2022/05/19 05:36:57;;;;;;;;;;;17.50;1.00;;;;;;5068893;28;19909;-73
2022/05/19 05:39:25;;;;;;;;;;;17.60;1.00;;;;;;5056419;28;19931;-73
2022/05/19 05:41:52;;;;;;;;;;;17.60;1.00;;;;;;5056450;28;19913;-73
2022/05/19 05:44:17;;;;;;;;;;;17.80;1.00;;;;;;5066141;28;19946;-72
2022/05/19 05:46:44;;;;;;;;;;;17.80;1.00;;;;;;5053899;28;19924;-71
2022/05/19 05:49:10;;;;;;;;;;;17.90;1.00;;;;;;5057063;28;19984;-71
2022/05/19 05:51:35;;;;;;;;;;;18.00;1.00;;;;;;5063396;28;20014;-70
2022/05/19 05:54:01;;;;;;;;;;;18.10;1.00;;;;;;5063389;28;19909;-70
2022/05/19 05:56:27;;;;;;;;;;;18.30;1.00;;;;;;5075240;28;19919;-71
2022/05/19 05:58:52;;;;;;;;;;;18.30;1.00;;;;;;5070596;28;19915;-73
2022/05/19 06:01:25;;;;;;;;;;;18.40;99.90;;;;;;5063332;28;19916;-73
2022/05/19 06:03:51;;;;;;;;;;;18.50;99.90;;;;;;5065052;28;19935;-73
2022/05/19 06:06:17;;;;;;;;;;;18.60;99.90;;;;;;5067447;28;19909;-73
2022/05/19 06:08:44;;;;;;;;;;;18.70;99.90;;;;;;5056484;28;19909;-72
2022/05/19 06:11:09;;;;;;;;;;;18.80;99.90;;;;;;5072978;28;19916;-72
2022/05/19 06:13:35;;;;;;;;;;;18.90;99.90;;;;;;5061126;28;19909;-73
2022/05/19 06:16:01;;;;;;;;;;;19.00;99.90;;;;;;5050012;28;20327;-73
2022/05/19 06:18:27;;;;;;;;;;;19.10;99.90;;;;;;5042982;28;19909;-73
2022/05/19 06:20:53;;;;;;;;;;;19.20;99.90;;;;;;5048294;28;19913;-73
2022/05/19 06:23:20;;;;;;;;;;;19.30;99.90;;;;;;5056797;28;19909;-73
2022/05/19 06:25:46;;;;;;;;;;;19.50;99.90;;;;;;5054776;28;20344;-73
2022/05/19 06:28:14;;;;;;;;;;;19.50;99.90;;;;;;5060659;28;19923;-71
2022/05/19 06:30:44;;;;;;;;;;;19.70;99.90;;;;;;5056993;28;20303;-71
2022/05/19 06:33:12;;;;;;;;;;;19.80;99.90;;;;;;5057171;28;19919;-71
2022/05/19 06:35:38;;;;;;;;;;;19.90;99.90;;;;;;5055432;28;19913;-71
2022/05/19 06:38:04;;;;;;;;;;;20.10;99.90;;;;;;5054148;28;19909;-71
2022/05/19 06:40:33;;;;;;;;;;;20.30;99.90;;;;;;5055004;28;20364;-71
2022/05/19 06:42:58;;;;;;;;;;;20.50;99.90;;;;;;5055360;28;20375;-71
2022/05/19 06:45:27;;;;;;;;;;;20.60;99.90;;;;;;5055418;28;19963;-73
2022/05/19 06:47:53;;;;;;;;;;;20.70;99.90;;;;;;5065617;28;20354;-73
2022/05/19 06:50:20;;;;;;;;;;;21.00;99.90;;;;;;5073808;28;19919;-75
2022/05/19 06:52:47;;;;;;;;;;;21.10;99.90;;;;;;5069899;28;20003;-73
2022/05/19 06:55:14;;;;;;;;;;;21.30;99.90;;;;;;5055080;28;19908;-73
2022/05/19 06:57:43;;;;;;;;;;;21.40;99.90;;;;;;5057904;28;20026;-74
2022/05/19 07:00:11;;;;;;;;;;;21.50;99.90;;;;;;5096539;28;19909;-73
2022/05/19 07:02:41;;;;;;;;;;;21.70;99.90;;;;;;5066304;28;19932;-73
2022/05/19 07:05:07;;;;;;;;;;;21.80;99.90;;;;;;5054214;28;19909;-76
2022/05/19 07:07:33;;;;;;;;;;;22.00;99.90;;;;;;5054887;28;19913;-73
2022/05/19 07:09:59;;;;;;;;;;;22.20;99.90;;;;;;5066919;28;19920;-73
2022/05/19 07:12:25;;;;;;;;;;;22.30;99.90;;;;;;5069230;28;19912;-73
2022/05/19 07:15:19;;;;;;;;;;;22.50;99.90;;;;;;5054637;28;19912;-80
2022/05/19 07:18:13;;;;;;;;;;;22.60;99.90;;;;;;5046562;28;19915;-81
2022/05/19 07:21:18;;;;;;;;;;;22.80;99.90;;;;;;5061426;28;19935;-81
2022/05/19 07:23:56;;;;;;;;;;;23.00;99.90;;;;;;5063275;28;19919;-80
2022/05/19 07:26:21;;;;;;;;;;;23.20;99.90;;;;;;5050643;28;19913;-81
2022/05/19 07:28:47;;;;;;;;;;;23.40;99.90;;;;;;5061386;28;19938;-82
2022/05/19 07:31:12;;;;;;;;;;;23.50;99.90;;;;;;5060095;28;19917;-81
2022/05/19 07:33:44;;;;;;;;;;;23.70;99.90;;;;;;5074218;28;20021;-82
2022/05/19 07:36:25;;;;;;;;;;;23.80;99.90;;;;;;5060596;28;19908;-81
2022/05/19 07:38:53;;;;;;;;;;;24.00;99.90;;;;;;5096176;28;19909;-81
2022/05/19 07:41:32;;;;;;;;;;;24.20;99.90;;;;;;5053960;28;20249;-81
2022/05/19 07:43:58;;;;;;;;;;;24.30;99.90;;;;;;5066387;28;19970;-82
2022/05/19 07:46:26;;;;;;;;;;;24.50;99.90;;;;;;5054602;28;19996;-81
2022/05/19 07:48:56;;;;;;;;;;;24.50;99.90;;;;;;5097843;28;20439;-81
2022/05/19 07:51:36;;;;;;;;;;;24.50;99.90;;;;;;5060277;28;20367;-81
2022/05/19 07:54:06;;;;;;;;;;;24.60;99.90;;;;;;5071181;28;19912;-72
2022/05/19 07:56:38;;;;;;;;;;;24.70;99.90;;;;;;5074119;28;19954;-72
2022/05/19 07:59:06;;;;;;;;;;;24.80;99.90;;;;;;5055790;28;19913;-75
2022/05/19 08:01:32;;;;;;;;;;;24.90;99.90;;;;;;5051321;28;19913;-75
2022/05/19 08:04:02;;;;;;;;;;;25.00;99.90;;;;;;5067101;28;19909;-75
2022/05/19 08:06:33;;;;;;;;;;;25.10;99.90;;;;;;5074212;28;19909;-75
2022/05/19 08:08:59;;;;;;;;;;;25.20;99.90;;;;;;5073809;28;19913;-75
2022/05/19 08:11:26;;;;;;;;;;;25.30;99.90;;;;;;5070681;28;19978;-76
2022/05/19 08:16:35;;;;;;;;;;;25.40;99.90;;;;;;5052707;28;20015;-76
2022/05/19 08:19:01;;;;;;;;;;;25.50;99.90;;;;;;5066156;28;20372;-76
2022/05/19 08:21:44;;;;;;;;;;;25.40;99.90;;;;;;5053170;28;19935;-76
2022/05/19 08:24:14;;;;;;;;;;;25.40;99.90;;;;;;5053006;28;20318;-75
2022/05/19 08:26:39;;;;;;;;;;;25.40;99.90;;;;;;5054191;28;20037;-75
2022/05/19 08:29:05;;;;;;;;;;;25.50;99.90;;;;;;5063137;28;19927;-75
2022/05/19 08:31:31;;;;;;;;;;;25.40;99.90;;;;;;5052775;28;19921;-75
2022/05/19 08:33:58;;;;;;;;;;;25.60;99.90;;;;;;5058638;28;19913;-75
2022/05/19 08:36:38;;;;;;;;;;;25.90;99.90;;;;;;5060648;28;20003;-75
2022/05/19 08:39:04;;;;;;;;;;;26.00;99.90;;;;;;5064808;28;19909;-75
2022/05/19 08:41:30;;;;;;;;;;;26.20;99.90;;;;;;5067529;28;19996;-75
2022/05/19 08:43:57;;;;;;;;;;;26.30;99.90;;;;;;5054343;28;20405;-76
2022/05/19 08:46:39;;;;;;;;;;;26.50;99.90;;;;;;5060908;28;19912;-76
2022/05/19 08:49:07;;;;;;;;;;;26.60;99.90;;;;;;5070411;28;20333;-75
2022/05/19 08:51:42;;;;;;;;;;;26.80;99.90;;;;;;5055238;28;19935;-76
2022/05/19 08:54:09;;;;;;;;;;;26.90;99.90;;;;;;5056632;28;19915;-76
2022/05/19 08:56:39;;;;;;;;;;;27.00;99.90;;;;;;5057030;28;19948;-76
2022/05/19 08:59:13;;;;;;;;;;;27.10;99.90;;;;;;5069823;28;19912;-76
2022/05/19 09:02:14;;;;;;;;;;;27.30;99.90;;;;;;5056552;28;19920;-77
2022/05/19 09:04:46;;;;;;;;;;;27.50;99.90;;;;;;5032688;28;20295;-85
2022/05/19 09:10:22;;;;;;;;;;;27.60;99.90;;;;;;5033743;28;19924;-78
2022/05/19 09:12:49;;;;;;;;;;;27.70;99.90;;;;;;5029527;28;19917;-78
2022/05/19 09:15:49;;;;;;;;;;;27.80;99.90;;;;;;5033657;28;20352;-79
2022/05/19 09:18:37;;;;;;;;;;;27.80;99.90;;;;;;5035610;28;19910;-77
2022/05/19 09:24:06;;;;;;;;;;;27.90;99.90;;;;;;5021470;28;19916;-87
2022/05/19 09:26:57;;;;;;;;;;;28.00;99.90;;;;;;5031194;28;20004;-88
2022/05/19 09:29:42;;;;;;;;;;;28.00;99.90;;;;;;5009694;28;19925;-88
2022/05/19 09:32:29;;;;;;;;;;;28.00;99.90;;;;;;5032717;28;20372;-81
2022/05/19 09:35:04;;;;;;;;;;;28.30;99.90;;;;;;5025210;28;19944;-84
2022/05/19 09:37:45;;;;;;;;;;;28.50;99.90;;;;;;5030581;28;19909;-85
2022/05/19 09:40:11;;;;;;;;;;;28.60;99.90;;;;;;5035355;28;19913;-85
2022/05/19 09:43:06;;;;;;;;;;;28.70;99.90;;;;;;5064488;28;19920;-86
2022/05/19 09:45:40;;;;;;;;;;;28.90;99.90;;;;;;4976440;28;20379;-85
2022/05/19 09:48:07;;;;;;;;;;;29.00;99.90;;;;;;4958858;28;20420;-85
2022/05/19 09:50:46;;;;;;;;;;;29.00;99.90;;;;;;4973530;28;19914;-86
2022/05/19 09:53:17;;;;;;;;;;;29.10;99.90;;;;;;4966744;28;19918;-85
2022/05/19 10:02:13;;;;;;;;;;;29.60;99.90;;;;;;4974927;28;19921;-85
2022/05/19 10:05:00;;;;;;;;;;;29.70;99.90;;;;;;4994561;28;19910;-76
2022/05/19 10:07:27;;;;;;;;;;;29.70;99.90;;;;;;4974898;28;19921;-76
2022/05/19 10:09:56;;;;;;;;;;;29.90;99.90;;;;;;4974913;28;20258;-76
2022/05/19 10:12:28;;;;;;;;;;;30.10;99.90;;;;;;4974776;28;19922;-75
2022/05/19 10:15:01;;;;;;;;;;;30.30;99.90;;;;;;4974798;28;19922;-75
2022/05/19 10:17:50;;;;;;;;;;;30.50;99.90;;;;;;4974748;28;20432;-83
2022/05/19 10:23:31;;;;;;;;;;;30.90;99.90;;;;;;5054119;28;19938;-84
2022/05/19 10:26:31;;;;;;;;;;;31.00;99.90;;;;;;5055602;28;19944;-84
2022/05/19 10:31:57;;;;;;;;;;;31.30;99.90;;;;;;5059474;28;19928;-84
2022/05/19 10:34:31;;;;;;;;;;;31.30;99.90;;;;;;5059605;28;19919;-83
2022/05/19 10:37:14;;;;;;;;;;;31.60;99.90;;;;;;5064045;28;19912;-83
2022/05/19 10:40:13;;;;;;;;;;;31.80;99.90;;;;;;5055120;28;20059;-83
2022/05/19 10:42:45;;;;;;;;;;;32.00;99.90;;;;;;5054894;28;19967;-83
2022/05/19 10:45:31;;;;;;;;;;;32.10;99.90;;;;;;5068217;28;19912;-84
2022/05/19 10:51:25;;;;;;;;;;;32.30;99.90;;;;;;5056063;28;19932;-83
2022/05/19 10:54:19;;;;;;;;;;;32.30;99.90;;;;;;5054906;28;19996;-83
2022/05/19 10:57:01;;;;;;;;;;;32.00;99.90;;;;;;5066366;28;19919;-83
2022/05/19 10:59:31;;;;;;;;;;;32.20;99.90;;;;;;5051807;28;19920;-84
2022/05/19 11:05:16;;;;;;;;;;;32.30;99.90;;;;;;5035691;28;19959;-86
2022/05/19 11:07:45;;;;;;;;;;;32.50;99.90;;;;;;5040225;28;20501;-87
2022/05/19 11:16:25;;;;;;;;;;;32.20;99.90;;;;;;5054776;28;19931;-87
2022/05/19 11:18:57;;;;;;;;;;;31.80;99.90;;;;;;5060911;28;19952;-76
2022/05/19 11:21:35;;;;;;;;;;;31.90;99.90;;;;;;5063817;28;20379;-76
2022/05/19 11:24:05;;;;;;;;;;;32.00;99.90;;;;;;5055410;28;20007;-76
2022/05/19 11:26:35;;;;;;;;;;;32.00;99.90;;;;;;5054936;28;19917;-77
2022/05/19 11:29:07;;;;;;;;;;;32.20;99.90;;;;;;5050765;28;19943;-76
2022/05/19 11:31:33;;;;;;;;;;;32.30;99.90;;;;;;5052333;28;19921;-77
2022/05/19 11:33:59;;;;;;;;;;;32.20;99.90;;;;;;5065729;28;19920;-87
2022/05/19 11:36:36;;;;;;;;;;;32.30;99.90;;;;;;5060399;28;19919;-87
2022/05/19 11:39:07;;;;;;;;;;;31.80;99.90;;;;;;5062771;28;19916;-88
2022/05/19 11:41:34;;;;;;;;;;;31.80;99.90;;;;;;5054473;28;19917;-87
2022/05/19 11:44:05;;;;;;;;;;;32.00;99.90;;;;;;5065798;28;19912;-87
2022/05/19 11:46:33;;;;;;;;;;;32.10;99.90;;;;;;5061023;28;19999;-88
2022/05/19 11:55:18;;;;;;;;;;;31.90;99.90;;;;;;5057242;28;20019;-76
2022/05/19 11:57:50;;;;;;;;;;;31.90;99.90;;;;;;5059120;28;19917;-76
2022/05/19 12:00:24;;;;;;;;;;;31.90;99.90;;;;;;5065146;28;19935;-76
2022/05/19 12:02:52;;;;;;;;;;;32.00;99.90;;;;;;5055758;28;19916;-77
2022/05/19 12:05:40;;;;;;;;;;;32.10;99.90;;;;;;5062094;28;20193;-77
2022/05/19 12:08:09;;;;;;;;;;;32.50;99.90;;;;;;5056317;28;19966;-77
2022/05/19 12:10:36;;;;;;;;;;;32.70;99.90;;;;;;5062351;28;19926;-77
2022/05/19 12:13:03;;;;;;;;;;;32.70;99.90;;;;;;5057963;28;19919;-76
2022/05/19 12:15:37;;;;;;;;;;;32.60;99.90;;;;;;5053506;28;19917;-76
2022/05/19 12:18:10;;;;;;;;;;;32.70;99.90;;;;;;5053009;28;20004;-77
2022/05/19 12:20:39;;;;;;;;;;;33.00;99.90;;;;;;5063424;28;19913;-87
2022/05/19 12:23:13;;;;;;;;;;;33.00;99.90;;;;;;5072236;28;19908;-87
2022/05/19 12:29:08;;;;;;;;;;;32.70;99.90;;;;;;5053912;28;20008;-86
2022/05/19 12:32:07;;;;;;;;;;;32.80;99.90;;;;;;5054925;28;19921;-80
2022/05/19 12:34:47;;;;;;;;;;;32.90;99.90;;;;;;5059725;28;19944;-71
2022/05/19 12:37:13;;;;;;;;;;;32.60;99.90;;;;;;5070135;28;19990;-71
2022/05/19 12:39:44;;;;;;;;;;;32.50;99.90;;;;;;5059992;28;20379;-73
2022/05/19 12:42:18;;;;;;;;;;;32.70;99.90;;;;;;5067994;28;20368;-72
2022/05/19 12:44:46;;;;;;;;;;;32.90;99.90;;;;;;5070981;28;19920;-72
2022/05/19 12:47:22;;;;;;;;;;;33.00;99.90;;;;;;5058311;28;19919;-72
2022/05/19 12:50:07;;;;;;;;;;;32.70;99.90;;;;;;5063256;28;19991;-80
2022/05/19 12:55:38;;;;;;;;;;;32.60;99.90;;;;;;5058609;28;19919;-83
2022/05/19 12:58:22;;;;;;;;;;;32.90;99.90;;;;;;5055737;28;20410;-84
2022/05/19 13:00:48;;;;;;;;;;;33.00;99.90;;;;;;5066259;28;19921;-87
2022/05/19 13:03:17;;;;;;;;;;;33.30;99.90;;;;;;5055770;28;19913;-88
2022/05/19 13:05:59;;;;;;;;;;;33.30;99.90;;;;;;5055712;28;19913;-78
2022/05/19 13:08:30;;;;;;;;;;;33.20;99.90;;;;;;5061520;28;20386;-77
2022/05/19 13:10:57;;;;;;;;;;;33.30;99.90;;;;;;5060719;28;19923;-77
2022/05/19 13:13:25;;;;;;;;;;;33.40;99.90;;;;;;5058352;28;20352;-78
2022/05/19 13:15:59;;;;;;;;;;;33.70;99.90;;;;;;5058295;28;19912;-78
2022/05/19 13:18:26;;;;;;;;;;;33.90;99.90;;;;;;5070455;28;19912;-78
2022/05/19 13:21:01;;;;;;;;;;;34.10;99.90;;;;;;5067141;28;19909;-88
2022/05/19 13:23:30;;;;;;;;;;;34.00;99.90;;;;;;5055751;28;19913;-87
2022/05/19 13:25:59;;;;;;;;;;;33.90;99.90;;;;;;5057211;28;19919;-89
2022/05/19 13:31:23;;;;;;;;;;;33.40;99.90;;;;;;5052078;28;19931;-87
2022/05/19 13:33:50;;;;;;;;;;;33.30;99.90;;;;;;5071044;28;20003;-88
2022/05/19 13:39:19;;;;;;;;;;;33.00;99.90;;;;;;5056847;28;20383;-87
2022/05/19 13:44:50;;;;;;;;;;;33.40;99.90;;;;;;5056736;28;19931;-85
2022/05/19 13:50:25;;;;;;;;;;;33.40;99.90;;;;;;5071858;28;19920;-85
2022/05/19 13:53:13;;;;;;;;;;;33.50;99.90;;;;;;5055801;28;19917;-85
2022/05/19 13:55:44;;;;;;;;;;;33.60;99.90;;;;;;5045629;28;19913;-86
2022/05/19 13:58:38;;;;;;;;;;;33.40;99.90;;;;;;5058685;28;19924;-85
2022/05/19 14:01:31;;;;;;;;;;;33.20;99.90;;;;;;5069717;28;19909;-84
2022/05/19 14:13:37;;;;;;;;;;;32.80;99.90;;;;;;5055507;28;19955;-84
2022/05/19 14:16:08;;;;;;;;;;;32.90;99.90;;;;;;5055705;28;19909;-84
2022/05/19 14:19:01;;;;;;;;;;;32.90;99.90;;;;;;5091133;28;20314;-85
2022/05/19 14:21:34;;;;;;;;;;;33.10;99.90;;;;;;5049209;28;20007;-76
2022/05/19 14:24:08;;;;;;;;;;;33.20;99.90;;;;;;5052811;28;19955;-78
2022/05/19 14:26:38;;;;;;;;;;;33.10;99.90;;;;;;5056427;28;19955;-77
2022/05/19 14:29:25;;;;;;;;;;;33.20;99.90;;;;;;5061868;28;19917;-78
2022/05/19 14:32:28;;;;;;;;;;;33.00;99.90;;;;;;5049299;28;19960;-77
2022/05/19 14:35:14;;;;;;;;;;;33.20;99.90;;;;;;5033588;28;19951;-79
2022/05/19 14:37:48;;;;;;;;;;;33.20;99.90;;;;;;5019526;28;20281;-74
2022/05/19 14:43:05;;;;;;;;;;;33.40;99.90;;;;;;5022761;28;19956;-73
2022/05/19 14:45:32;;;;;;;;;;;33.30;99.90;;;;;;5032021;28;19909;-73
2022/05/19 14:47:58;;;;;;;;;;;33.30;99.90;;;;;;5032027;28;19909;-74
2022/05/19 14:50:25;;;;;;;;;;;33.40;99.90;;;;;;5003081;28;19955;-82
2022/05/19 14:52:54;;;;;;;;;;;33.40;99.90;;;;;;5031990;28;19920;-82
2022/05/19 14:55:22;;;;;;;;;;;33.60;99.90;;;;;;5031850;28;19916;-83
2022/05/19 14:57:51;;;;;;;;;;;33.90;99.90;;;;;;5031945;28;20004;-82
2022/05/19 15:00:21;;;;;;;;;;;33.80;99.90;;;;;;5031581;28;19909;-82
2022/05/19 15:02:47;;;;;;;;;;;33.60;99.90;;;;;;5028366;28;19917;-82
2022/05/19 15:05:14;;;;;;;;;;;33.40;99.90;;;;;;5031964;28;19933;-75
2022/05/19 15:07:50;;;;;;;;;;;33.10;99.90;;;;;;5031758;28;19984;-74
2022/05/19 15:10:18;;;;;;;;;;;33.40;99.90;;;;;;5062240;28;20363;-74
2022/05/19 15:12:44;;;;;;;;;;;34.20;99.90;;;;;;5063731;28;19920;-73
2022/05/19 15:15:10;;;;;;;;;;;35.20;99.90;;;;;;5065739;28;19912;-74
2022/05/19 15:17:35;;;;;;;;;;;35.80;99.90;;;;;;5065393;28;19923;-74
2022/05/19 15:20:01;;;;;;;;;;;36.10;99.90;;;;;;5067574;28;19909;-74
2022/05/19 15:22:26;;;;;;;;;;;36.40;99.90;;;;;;5073702;28;19909;-74
2022/05/19 15:24:53;;;;;;;;;;;35.90;99.90;;;;;;5071248;28;19909;-74
2022/05/19 15:27:21;;;;;;;;;;;35.20;99.90;;;;;;5056437;28;20278;-74
2022/05/19 15:29:47;;;;;;;;;;;35.00;99.90;;;;;;5073475;28;19956;-74
2022/05/19 15:32:14;;;;;;;;;;;34.70;99.90;;;;;;5073497;28;19948;-74
2022/05/19 15:34:39;;;;;;;;;;;34.30;99.90;;;;;;5073373;28;19977;-74
2022/05/19 15:37:05;;;;;;;;;;;34.50;99.90;;;;;;5073616;28;20371;-74
2022/05/19 15:39:30;;;;;;;;;;;34.50;99.90;;;;;;5073238;28;19940;-74
2022/05/19 15:41:56;;;;;;;;;;;34.30;99.90;;;;;;5073148;28;19908;-74
2022/05/19 15:44:21;;;;;;;;;;;33.80;99.90;;;;;;5073094;28;19941;-74
2022/05/19 15:46:47;;;;;;;;;;;33.40;99.90;;;;;;5073377;28;19964;-74
2022/05/19 15:49:12;;;;;;;;;;;33.10;99.90;;;;;;5073320;28;20025;-74
2022/05/19 15:51:38;;;;;;;;;;;32.80;99.90;;;;;;5073619;28;20367;-82
2022/05/19 15:54:04;;;;;;;;;;;32.60;99.90;;;;;;5068174;28;19916;-83
2022/05/19 15:56:31;;;;;;;;;;;32.30;99.90;;;;;;5064782;28;19909;-83
2022/05/19 15:58:57;;;;;;;;;;;32.10;99.90;;;;;;5073245;28;19908;-83
2022/05/19 16:01:23;;;;;;;;;;;32.00;99.90;;;;;;5073219;28;20271;-83
2022/05/19 16:03:48;;;;;;;;;;;31.80;99.90;;;;;;5065537;28;19913;-83
2022/05/19 16:06:14;;;;;;;;;;;31.60;99.90;;;;;;5073562;28;19908;-83
2022/05/19 16:09:01;;;;;;;;;;;31.60;99.90;;;;;;5062466;28;19909;-84
2022/05/19 16:11:38;;;;;;;;;;;31.40;99.90;;;;;;5047662;28;19917;-85
2022/05/19 16:14:14;;;;;;;;;;;31.10;99.90;;;;;;5051958;28;19913;-90
2022/05/19 16:17:01;;;;;;;;;;;30.90;99.90;;;;;;5054644;28;19913;-90
2022/05/19 16:22:40;;;;;;;;;;;30.30;99.90;;;;;;5054645;28;19916;-92
2022/05/19 16:25:41;;;;;;;;;;;30.00;99.90;;;;;;5061237;28;19908;-84
2022/05/19 16:28:07;;;;;;;;;;;29.80;99.90;;;;;;5070510;28;19916;-84
2022/05/19 16:30:38;;;;;;;;;;;29.60;99.90;;;;;;5062086;28;19913;-83
2022/05/19 16:33:08;;;;;;;;;;;29.10;99.90;;;;;;5067081;28;19937;-82
2022/05/19 16:35:41;;;;;;;;;;;28.50;99.90;;;;;;5054293;28;19916;-82
2022/05/19 16:38:10;;;;;;;;;;;28.10;99.90;;;;;;5057088;28;19915;-77
2022/05/19 16:40:38;;;;;;;;;;;27.60;99.90;;;;;;5092898;28;19948;-77
2022/05/19 16:43:04;;;;;;;;;;;27.10;99.90;;;;;;5061360;28;20225;-74
2022/05/19 16:45:32;;;;;;;;;;;26.60;99.90;;;;;;5058620;28;19996;-78
2022/05/19 16:47:59;;;;;;;;;;;26.10;99.90;;;;;;5056243;28;20253;-75
2022/05/19 16:50:29;;;;;;;;;;;25.60;99.90;;;;;;5067810;28;20355;-74
2022/05/19 16:52:55;;;;;;;;;;;25.20;99.90;;;;;;5065660;28;19920;-78
2022/05/19 16:58:15;;;;;;;;;;;24.20;99.90;;;;;;5055197;28;20004;-74
2022/05/19 17:00:47;;;;;;;;;;;23.90;99.90;;;;;;5055483;28;19913;-73
2022/05/19 17:03:16;;;;;;;;;;;23.40;99.90;;;;;;5051147;28;19921;-75
2022/05/19 17:05:43;;;;;;;;;;;23.10;99.90;;;;;;5053192;28;19912;-74
2022/05/19 17:08:09;;;;;;;;;;;22.80;99.90;;;;;;5063924;28;19957;-76
2022/05/19 17:10:50;;;;;;;;;;;22.80;99.90;;;;;;5076170;28;19916;-77
2022/05/19 17:13:29;;;;;;;;;;;22.70;99.90;;;;;;5076738;28;19962;-77
2022/05/19 17:15:56;;;;;;;;;;;22.60;99.90;;;;;;5051806;28;19910;-78
2022/05/19 17:18:42;;;;;;;;;;;22.40;99.90;;;;;;5067476;28;21504;-82